Terminal Aerodrome Forecast
Issued by NWS

Home | Current Version | Previous Version | Text Only | Print | Product List | Glossary On
Versions: 1 2 3 4 5 6 7 8 9 10 11 12 13 14 15 16 17 18 19 20 21
000
FTUS43 KSGF 310923 AAA
TAFJLN
TAF AMD
KJLN 310923Z 3109/0106 15005KT P6SM SKC
     FM311100 18005KT 6SM BR SKC
     FM311400 20011G18KT P6SM FEW050
     FM312300 18009KT P6SM SKC=

USA.gov is the U.S. government's official web portal to all federal, state and local government web resources and services.